Mount Washington, Maryland
Current Conditions -  °F | °C
As of 12:54 AM on Sunday 23 Nov 2014 (Local Time) from KBWI Reporting Station
Broken Clouds Broken Clouds  
Wind Chill: 39°   Ceiling: 20000
Heat Index: 44°   Visibility: 10mi
Dew Point: 18°   Wind: 9mph
Humidity: 35%   Direction: 230°SW
Pressure: 30.22"   Gusts: NA
Location:  39.3715°N, 76.6675°W
Report Text: KBWI 230554Z 23008KT 10SM SCT110 BKN200 07/M08 A3022 RMK AO2 SLP235 T00671078 10072 20039 58009
Loading
Personal Weather Stations






























Interactive Weather Map New forecast layout! Learn more

10-Day Weather Forecast

Advertisements
Track Severe Weather on mobile